Hopewell Junction, NY (12533)

9:59 AM EDT on August 30, 2015 (GMT -0400)
Hopewell Hamlet | | Change Station
CLOSE
Current Station
Personal Weather Station
Location: East Fishkill, NY
Elevation: 505 ft
Nearby Weather Stations

Elev 505 ft 41.58 °N, 73.82 °W | Updated 11 minutes ago

Mostly Cloudy
Mostly Cloudy
73.0 °F
Feels Like 74 °F
N
0.0
Wind Variable Wind from SSE

Today
High -- | Low -- °F
--% Chance of Precip.
Yesterday
High -- | Low -- °F
Precip. -- in
6:18 AM 7:31 PM
Full, 99% visible
Pressure 30.09 in
Visibility 10.0 miles
Clouds Scattered Clouds 10000 ft
Heat Index 74 °F
Dew Point 65 °F
Humidity 77%
Rainfall 0.00 in
Snow Depth Not available.
UV 4 out of 12
Pollen 9.90 out of 12
Air Quality Not available.
Flu Activity Not available.
METAR KPOU 301353Z 23005KT 10SM SCT100 24/18 A3010 RMK AO2 SLP187 T02440178
Pressure 30.09 in
Visibility 10.0 miles
Clouds Scattered Clouds 10000 ft
Heat Index 74 °F
Dew Point 65 °F
Humidity 77%
Rainfall 0.00 in
Snow Depth Not available.
UV 4 out of 12
Pollen 9.90 out of 12
Air Quality Not available.
Flu Activity Not available.
METAR KPOU 301353Z 23005KT 10SM SCT100 24/18 A3010 RMK AO2 SLP187 T02440178

10-Day Weather Forecast

×

Almanac

Astronomy

Aug. 30, 2015 Rise Set
Actual Time
Civil Twilight
Nautical Twilight
Astronomical Twilight
Moon
Length of Visible Light
Length of Day
Tomorrow will be .
, % of the Moon is Illuminated

Today's Extremes

State Highs State Lows

Community

WunderPhotos

Upload Photos

1,850,954 photos uploaded!

WunderBlogs® & News

Nearby

Air Quality

  Air Quality AQ Index Pollutant
Not available.

Snow Depth

Station Depth Elevation

Earthquake Activity

City Distance Mag. Time & Date
Minimum magnitude displayed is 2.5.

Coastal Water Temperatures

Place Temperature

Stations

Nearby Weather Stations

Station Location Temp. Windchill Dew Point Humidity Wind Precip. Elev Updated Type